Time;durP1;ratioP1;P1;durP2;ratioP2;P2;SDS_P1;SDS_P2;PMS_P1;PMS_P2;Temp;Humidity;BMP_temperature;BMP_pressure;BME280_temperature;BME280_humidity;BME280_pressure;Samples;Min_cycle;Max_cycle;Signal;HPM_P1;HPM_P2
2023/06/16 00:01:41;;;;;;;5.72;5.22;;;;;;;14.67;100.00;101645.41;5040470;28;20187;-49
2023/06/16 00:04:08;;;;;;;8.20;5.38;;;;;;;14.70;100.00;101647.97;5041066;28;20262;-48
2023/06/16 00:06:36;;;;;;;6.90;5.68;;;;;;;14.65;100.00;101635.59;5042156;28;20191;-51
2023/06/16 00:09:02;;;;;;;6.20;5.50;;;;;;;14.80;100.00;101621.44;5038651;28;20207;-47
2023/06/16 00:11:28;;;;;;;6.90;5.50;;;;;;;14.67;100.00;101631.91;5043549;28;20174;-49
2023/06/16 00:13:56;;;;;;;6.75;5.47;;;;;;;14.81;100.00;101624.09;5035677;28;20249;-49
2023/06/16 00:16:23;;;;;;;6.90;5.57;;;;;;;14.82;100.00;101617.78;5037674;28;20184;-49
2023/06/16 00:18:51;;;;;;;9.00;5.70;;;;;;;14.58;100.00;101626.88;5034655;28;20200;-51
2023/06/16 00:21:37;;;;;;;8.40;6.18;;;;;;;14.55;100.00;101630.59;5041224;28;20238;-48
2023/06/16 00:24:07;;;;;;;7.00;6.30;;;;;;;14.61;100.00;101632.16;5033427;28;20529;-49
2023/06/16 00:26:32;;;;;;;8.68;5.80;;;;;;;14.77;100.00;101630.56;5038346;28;20612;-48
2023/06/16 00:28:58;;;;;;;5.90;5.40;;;;;;;14.87;100.00;101632.84;5009986;28;20690;-48
2023/06/16 00:31:29;;;;;;;7.93;5.95;;;;;;;14.87;100.00;101633.75;5038749;28;20225;-50
2023/06/16 00:33:55;;;;;;;6.30;5.53;;;;;;;14.94;100.00;101619.03;5037519;28;20175;-49
2023/06/16 00:36:20;;;;;;;7.03;5.82;;;;;;;15.00;100.00;101615.22;5037252;28;20640;-49
2023/06/16 00:38:46;;;;;;;6.75;5.45;;;;;;;14.97;100.00;101615.31;5039700;28;20275;-49
2023/06/16 00:41:13;;;;;;;7.30;5.75;;;;;;;14.76;100.00;101619.84;5033980;28;20172;-48
2023/06/16 00:43:39;;;;;;;6.97;5.40;;;;;;;14.80;100.00;101614.25;5038041;28;20184;-49
2023/06/16 00:46:05;;;;;;;6.18;5.57;;;;;;;14.86;100.00;101621.19;5037448;28;20194;-49
2023/06/16 00:48:31;;;;;;;5.80;5.30;;;;;;;14.88;100.00;101596.84;5034776;28;20662;-49
2023/06/16 00:50:57;;;;;;;6.32;5.60;;;;;;;14.90;100.00;101601.22;5037226;28;20183;-50
2023/06/16 00:53:25;;;;;;;7.10;5.70;;;;;;;14.89;100.00;101596.78;5039735;28;20179;-50
2023/06/16 00:55:51;;;;;;;5.80;5.30;;;;;;;14.89;100.00;101587.78;5023731;28;20218;-49
2023/06/16 00:58:20;;;;;;;5.45;5.00;;;;;;;14.87;100.00;101598.69;5037151;28;20655;-51
2023/06/16 01:00:46;;;;;;;6.80;5.25;;;;;;;14.87;100.00;101595.06;5028899;28;20196;-48
2023/06/16 01:03:16;;;;;;;8.02;5.55;;;;;;;14.75;100.00;101599.19;5033851;28;20190;-49
2023/06/16 01:05:43;;;;;;;5.85;5.35;;;;;;;14.79;100.00;101587.34;5032285;28;20961;-49
2023/06/16 01:08:19;;;;;;;6.10;5.60;;;;;;;14.80;100.00;101600.78;5036770;28;20206;-48
2023/06/16 01:11:06;;;;;;;4.68;4.38;;;;;;;14.90;100.00;101594.97;5036482;28;20253;-48
2023/06/16 01:14:03;;;;;;;6.38;5.55;;;;;;;14.83;100.00;101588.97;5041778;28;20191;-49
2023/06/16 01:16:31;;;;;;;5.53;5.03;;;;;;;14.88;100.00;101583.34;5022551;28;20654;-51
2023/06/16 01:19:02;;;;;;;6.43;5.40;;;;;;;14.82;100.00;101584.50;5040335;28;20353;-50
2023/06/16 01:22:09;;;;;;;5.65;5.15;;;;;;;14.91;100.00;101594.00;5035204;28;20195;-49
2023/06/16 01:24:36;;;;;;;10.18;5.10;;;;;;;14.96;100.00;101595.56;5040000;28;20610;-51
2023/06/16 01:27:05;;;;;;;7.57;6.28;;;;;;;14.81;100.00;101588.16;5040398;28;20199;-50
2023/06/16 01:29:36;;;;;;;5.85;5.07;;;;;;;14.66;100.00;101603.16;5028357;28;20246;-50
2023/06/16 01:32:07;;;;;;;6.28;5.60;;;;;;;14.72;100.00;101596.66;5034148;28;20245;-51
2023/06/16 01:34:35;;;;;;;6.20;5.60;;;;;;;14.69;100.00;101594.94;5017256;28;20195;-49
2023/06/16 01:37:02;;;;;;;6.70;6.03;;;;;;;14.62;100.00;101602.41;5037137;28;20179;-49
2023/06/16 01:39:29;;;;;;;6.00;5.50;;;;;;;14.61;100.00;101594.41;5015422;28;20677;-49
2023/06/16 01:41:56;;;;;;;6.30;5.68;;;;;;;14.73;100.00;101599.25;5024410;28;20596;-49
2023/06/16 01:44:22;;;;;;;6.88;6.28;;;;;;;14.49;100.00;101597.59;5040505;28;20171;-48
2023/06/16 01:46:50;;;;;;;5.95;5.38;;;;;;;14.48;100.00;101593.16;5037055;28;20661;-47
2023/06/16 01:49:16;;;;;;;5.93;5.30;;;;;;;14.52;100.00;101598.34;5036211;28;20274;-48
2023/06/16 01:51:42;;;;;;;6.90;6.25;;;;;;;14.38;100.00;101607.00;5036419;28;20481;-47
2023/06/16 01:54:07;;;;;;;9.23;6.07;;;;;;;14.43;100.00;101602.31;5040335;28;20526;-46
2023/06/16 01:56:33;;;;;;;8.82;6.53;;;;;;;14.48;100.00;101601.25;5021464;28;20271;-48
2023/06/16 01:58:59;;;;;;;6.30;5.70;;;;;;;14.45;100.00;101598.66;5021217;28;20203;-47
2023/06/16 02:01:39;;;;;;;6.90;6.07;;;;;;;14.47;100.00;101605.72;5017995;28;20187;-46
2023/06/16 02:04:20;;;;;;;7.32;6.60;;;;;;;14.50;100.00;101602.06;5020846;28;20183;-46
2023/06/16 02:06:51;;;;;;;6.57;5.97;;;;;;;14.57;100.00;101603.56;5023773;28;20183;-46
2023/06/16 02:09:20;;;;;;;6.90;6.03;;;;;;;14.45;100.00;101598.66;5030328;28;20589;-47
2023/06/16 02:11:47;;;;;;;6.85;6.10;;;;;;;14.49;100.00;101600.28;5024629;28;20241;-46
2023/06/16 02:14:12;;;;;;;7.50;6.68;;;;;;;14.39;100.00;101595.28;5022179;28;20411;-47
2023/06/16 02:16:42;;;;;;;6.20;5.60;;;;;;;14.53;100.00;101592.00;5041920;28;20222;-46
2023/06/16 02:19:09;;;;;;;7.20;6.38;;;;;;;14.50;100.00;101589.44;5030125;28;20234;-47
2023/06/16 02:21:36;;;;;;;7.43;6.63;;;;;;;14.41;100.00;101593.41;5025310;28;20623;-46
2023/06/16 02:24:03;;;;;;;6.85;6.15;;;;;;;14.53;100.00;101593.81;5040482;28;20518;-45
2023/06/16 02:26:29;;;;;;;7.03;5.80;;;;;;;14.60;100.00;101592.63;5040418;28;20208;-45
2023/06/16 02:28:55;;;;;;;7.55;6.50;;;;;;;14.59;100.00;101586.38;5043487;28;20284;-46
2023/06/16 02:31:21;;;;;;;6.95;6.30;;;;;;;14.48;100.00;101588.63;5040963;28;20175;-46
2023/06/16 02:33:51;;;;;;;6.95;6.30;;;;;;;14.35;100.00;101592.78;5042157;28;20669;-46
2023/06/16 02:36:18;;;;;;;7.03;6.43;;;;;;;14.29;100.00;101593.91;5016667;28;20176;-46
2023/06/16 02:38:43;;;;;;;7.22;6.53;;;;;;;14.34;100.00;101578.44;5023814;28;20183;-46
2023/06/16 02:41:10;;;;;;;6.95;6.22;;;;;;;14.39;100.00;101578.25;5036672;28;20187;-46
2023/06/16 02:43:35;;;;;;;8.02;7.40;;;;;;;14.29;100.00;101576.84;5019743;28;20557;-46
2023/06/16 02:46:01;;;;;;;7.70;6.93;;;;;;;14.28;100.00;101573.28;5018964;28;20665;-45
2023/06/16 02:48:27;;;;;;;8.25;7.45;;;;;;;14.30;100.00;101576.81;5025760;28;20254;-46
2023/06/16 02:50:55;;;;;;;7.10;6.50;;;;;;;14.38;100.00;101582.72;5020506;28;20555;-46
2023/06/16 02:53:24;;;;;;;7.00;6.40;;;;;;;14.40;100.00;101591.63;5021237;28;20200;-47
2023/06/16 02:55:55;;;;;;;7.07;6.47;;;;;;;14.33;100.00;101586.56;5010928;28;20187;-46
2023/06/16 02:58:22;;;;;;;7.55;6.85;;;;;;;14.33;100.00;101581.19;5025485;28;20633;-45
2023/06/16 03:00:49;;;;;;;8.05;7.35;;;;;;;14.31;100.00;101589.31;5024092;28;20236;-45
2023/06/16 03:03:31;;;;;;;7.13;6.60;;;;;;;14.30;100.00;101578.59;5011485;28;20215;-46
2023/06/16 03:06:09;;;;;;;7.60;6.90;;;;;;;14.17;100.00;101572.88;5019202;28;20683;-46
2023/06/16 03:08:36;;;;;;;9.90;8.90;;;;;;;14.14;100.00;101575.66;5025051;28;20543;-47
2023/06/16 03:11:02;;;;;;;9.70;8.88;;;;;;;14.12;100.00;101570.34;5023216;28;20556;-46
2023/06/16 03:13:33;;;;;;;11.07;9.07;;;;;;;14.08;100.00;101565.13;5021646;28;20195;-46
2023/06/16 03:16:00;;;;;;;9.23;8.30;;;;;;;14.02;100.00;101563.59;5039532;28;20318;-45
2023/06/16 03:18:27;;;;;;;9.65;8.75;;;;;;;14.01;100.00;101562.72;5022588;28;20690;-47
2023/06/16 03:20:54;;;;;;;13.18;8.43;;;;;;;14.12;100.00;101569.47;5028399;28;20184;-46
2023/06/16 03:23:24;;;;;;;9.32;8.55;;;;;;;14.10;100.00;101566.84;5025038;28;20263;-48
2023/06/16 03:25:50;;;;;;;10.27;9.38;;;;;;;14.05;100.00;101558.06;5022860;28;20202;-46
2023/06/16 03:28:20;;;;;;;9.50;8.70;;;;;;;14.13;100.00;101553.25;5023948;28;20587;-45
2023/06/16 03:30:47;;;;;;;9.73;8.73;;;;;;;14.11;100.00;101552.44;5022351;28;20200;-46
2023/06/16 03:33:15;;;;;;;8.32;7.63;;;;;;;14.21;100.00;101547.50;5035550;28;20206;-45
2023/06/16 03:35:44;;;;;;;9.20;8.32;;;;;;;14.11;100.00;101552.44;5024352;28;20223;-47
2023/06/16 03:38:36;;;;;;;9.98;9.07;;;;;;;14.07;100.00;101552.63;5031737;28;20195;-46
2023/06/16 03:41:01;;;;;;;9.88;8.98;;;;;;;14.06;100.00;101549.06;5023447;28;20176;-46
2023/06/16 03:43:27;;;;;;;9.40;8.52;;;;;;;14.10;100.00;101547.09;5031766;28;20712;-46
2023/06/16 03:45:54;;;;;;;10.82;9.88;;;;;;;13.99;100.00;101543.03;5030774;28;20175;-46
2023/06/16 03:48:21;;;;;;;12.48;11.10;;;;;;;13.94;100.00;101550.41;5024258;28;20604;-45
2023/06/16 03:50:52;;;;;;;12.35;11.20;;;;;;;13.98;100.00;101548.47;5015931;28;20230;-46
2023/06/16 03:53:19;;;;;;;12.20;11.10;;;;;;;13.97;100.00;101541.31;5020597;28;20183;-45
2023/06/16 03:55:47;;;;;;;12.90;11.68;;;;;;;13.96;100.00;101543.16;5018914;28;20245;-47
2023/06/16 03:58:15;;;;;;;13.52;12.23;;;;;;;13.95;100.00;101544.09;5022386;28;20183;-45
2023/06/16 04:00:43;;;;;;;12.68;11.50;;;;;;;14.02;100.00;101550.13;5017549;28;20254;-44
2023/06/16 04:03:11;;;;;;;13.40;12.15;;;;;;;14.09;100.00;101543.53;5019136;28;20199;-46
2023/06/16 04:05:37;;;;;;;13.30;12.02;;;;;;;14.16;100.00;101545.03;5044486;28;20673;-46
2023/06/16 04:08:05;;;;;;;11.95;10.63;;;;;;;14.16;100.00;101545.03;5021382;28;20180;-46
2023/06/16 04:10:32;;;;;;;10.95;9.95;;;;;;;14.18;100.00;101543.13;5020578;28;20196;-48
2023/06/16 04:12:58;;;;;;;10.68;9.77;;;;;;;14.12;100.00;101538.00;5025359;28;20528;-46
2023/06/16 04:15:25;;;;;;;10.65;9.75;;;;;;;14.11;100.00;101538.09;5022092;28;20171;-45
2023/06/16 04:17:52;;;;;;;10.52;9.60;;;;;;;14.14;100.00;101541.50;5029512;28;20215;-46
2023/06/16 04:20:17;;;;;;;11.50;10.57;;;;;;;14.00;100.00;101530.44;5036619;28;20282;-47
2023/06/16 04:22:43;;;;;;;11.95;10.85;;;;;;;13.97;100.00;101541.31;5025788;28;20182;-46
2023/06/16 04:25:09;;;;;;;12.15;10.90;;;;;;;14.03;100.00;101541.06;5037082;28;20226;-46
2023/06/16 04:27:36;;;;;;;16.95;15.20;;;;;;;13.95;100.00;101540.50;5019210;28;20220;-46
2023/06/16 04:30:04;;;;;;;15.95;14.43;;;;;;;14.06;100.00;101532.00;5018466;28;20713;-46
2023/06/16 04:32:30;;;;;;;19.27;17.27;;;;;;;14.03;100.00;101530.31;5020514;28;20546;-47
2023/06/16 04:34:57;;;;;;;22.25;17.25;;;;;;;14.06;100.00;101526.59;5023485;28;20230;-45
2023/06/16 04:37:23;;;;;;;22.08;17.73;;;;;;;14.05;100.00;101528.44;5025000;28;20194;-45
2023/06/16 04:39:49;;;;;;;16.90;15.30;;;;;;;14.24;100.00;101525.84;5021632;28;20367;-45
2023/06/16 04:42:18;;;;;;;18.65;16.85;;;;;;;14.29;100.00;101517.56;5037846;28;20666;-48
2023/06/16 04:44:45;;;;;;;18.48;16.77;;;;;;;14.21;100.00;101515.16;5041015;28;20184;-47
2023/06/16 04:47:12;;;;;;;17.45;15.70;;;;;;;14.32;100.00;101518.31;5015763;28;20167;-45
2023/06/16 04:49:39;;;;;;;17.70;16.00;;;;;;;14.31;100.00;101510.28;5019346;28;20214;-46
2023/06/16 04:52:08;;;;;;;18.50;16.77;;;;;;;14.29;100.00;101513.03;5040942;28;20590;-45
2023/06/16 04:54:35;;;;;;;19.20;17.30;;;;;;;14.33;100.00;101516.50;5027537;28;20195;-45
2023/06/16 04:57:01;;;;;;;19.75;17.65;;;;;;;14.48;100.00;101507.72;5019885;28;20191;-47
2023/06/16 04:59:26;;;;;;;22.17;17.40;;;;;;;14.33;100.00;101501.19;5038039;28;20370;-47
2023/06/16 05:01:52;;;;;;;20.30;17.60;;;;;;;14.39;100.00;101490.13;5023764;28;20343;-46
2023/06/16 05:04:17;;;;;;;20.45;18.50;;;;;;;14.32;100.00;101485.97;5038893;28;20179;-47
2023/06/16 05:06:43;;;;;;;21.15;18.23;;;;;;;14.38;100.00;101492.91;5017358;28;20307;-48
2023/06/16 05:09:09;;;;;;;20.58;18.58;;;;;;;14.29;100.00;101485.22;5029157;28;20210;-48
2023/06/16 05:11:35;;;;;;;20.52;18.73;;;;;;;14.37;100.00;101494.72;5018249;28;20226;-46
2023/06/16 05:14:01;;;;;;;20.75;18.77;;;;;;;14.46;100.00;101489.88;5019014;28;20187;-46
2023/06/16 05:16:27;;;;;;;21.25;19.10;;;;;;;14.45;100.00;101488.09;5016318;28;20183;-47
2023/06/16 05:18:54;;;;;;;22.50;18.98;;;;;;;14.49;100.00;101484.34;5021720;28;20196;-48
2023/06/16 05:21:25;;;;;;;21.75;19.35;;;;;;;14.42;100.00;101481.03;5017753;28;20184;-47
2023/06/16 05:23:53;;;;;;;21.20;18.95;;;;;;;14.61;100.00;101483.84;5018404;28;20163;-47
2023/06/16 05:26:21;;;;;;;23.25;19.83;;;;;;;14.65;100.00;101488.16;5020842;28;20580;-45
2023/06/16 05:28:47;;;;;;;21.85;18.95;;;;;;;14.78;100.00;101470.47;5019871;28;20306;-46
2023/06/16 05:31:13;;;;;;;22.02;19.92;;;;;;;14.80;100.00;101470.38;5019725;28;20184;-47
2023/06/16 05:33:39;;;;;;;22.00;19.90;;;;;;;14.80;100.00;101465.88;5020260;28;20168;-45
2023/06/16 05:36:05;;;;;;;21.63;19.33;;;;;;;14.78;100.00;101464.19;5036819;28;20182;-45
2023/06/16 05:38:31;;;;;;;20.98;18.88;;;;;;;14.94;100.00;101456.28;5040350;28;20637;-46
2023/06/16 05:40:57;;;;;;;20.85;18.52;;;;;;;14.80;100.00;101462.28;5017370;28;20206;-48
2023/06/16 05:43:23;;;;;;;21.83;18.55;;;;;;;14.89;100.00;101460.97;5016870;28;20168;-45
2023/06/16 05:45:49;;;;;;;20.70;18.70;;;;;;;14.94;100.00;101459.84;5020527;28;20447;-46
2023/06/16 05:48:14;;;;;;;19.88;18.05;;;;;;;14.92;100.00;101463.56;5038410;28;20179;-46
2023/06/16 05:50:40;;;;;;;18.90;17.25;;;;;;;15.06;100.00;101450.28;5019278;28;20194;-48
2023/06/16 05:53:07;;;;;;;20.63;17.92;;;;;;;15.20;100.00;101461.31;5021559;28;20194;-47
2023/06/16 05:55:34;;;;;;;20.77;18.65;;;;;;;15.17;100.00;101456.03;5018549;28;20187;-45
2023/06/16 05:58:00;;;;;;;20.20;17.95;;;;;;;15.24;100.00;101470.16;5004373;28;20187;-45
2023/06/16 06:00:27;;;;;;;24.58;19.63;;;;;;;15.04;100.00;101484.56;5019290;28;20214;-46
2023/06/16 06:02:58;;;;;;;24.33;20.80;;;;;;;14.94;100.00;101494.03;5014860;28;20195;-46
2023/06/16 06:05:27;;;;;;;23.08;19.10;;;;;;;14.93;100.00;101498.53;5020821;28;20274;-48
2023/06/16 06:07:54;;;;;;;21.83;19.60;;;;;;;15.00;100.00;101515.38;5023100;28;20191;-46
2023/06/16 06:10:19;;;;;;;21.42;19.52;;;;;;;14.83;100.00;101551.19;5034516;28;20254;-46
2023/06/16 06:12:45;;;;;;;21.75;19.52;;;;;;;14.92;100.00;101587.69;5038650;28;20231;-46
2023/06/16 06:15:11;;;;;;;21.33;18.42;;;;;;;15.04;100.00;101589.81;5019134;28;20270;-47
2023/06/16 06:17:38;;;;;;;22.98;20.73;;;;;;;15.01;100.00;101579.16;5021324;28;20206;-46
2023/06/16 06:20:05;;;;;;;21.27;19.10;;;;;;;15.11;100.00;101545.44;5016737;28;20612;-48
2023/06/16 06:22:32;;;;;;;20.55;18.30;;;;;;;15.17;100.00;101526.22;5032123;28;20184;-46
2023/06/16 06:25:00;;;;;;;20.17;17.33;;;;;;;15.22;100.00;101524.22;5017784;28;20206;-46
2023/06/16 06:27:25;;;;;;;19.92;17.75;;;;;;;15.27;100.00;101521.28;5037157;28;20259;-46
2023/06/16 06:29:51;;;;;;;20.17;18.17;;;;;;;15.28;100.00;101509.53;5003745;28;20402;-46
2023/06/16 06:32:17;;;;;;;19.17;17.35;;;;;;;15.27;100.00;101506.94;5021172;28;20278;-46
2023/06/16 06:34:43;;;;;;;20.00;18.05;;;;;;;15.24;100.00;101500.72;5022468;28;20167;-45
2023/06/16 06:37:16;;;;;;;20.88;18.67;;;;;;;15.25;100.00;101505.16;5020136;28;20187;-45
2023/06/16 06:39:42;;;;;;;17.65;15.93;;;;;;;15.38;100.00;101491.97;5020583;28;20195;-47
2023/06/16 06:42:09;;;;;;;18.73;16.90;;;;;;;15.38;100.00;101500.06;5019218;28;20205;-46
2023/06/16 06:44:48;;;;;;;21.13;17.20;;;;;;;15.39;100.00;101495.53;5018117;28;20222;-47
2023/06/16 06:47:13;;;;;;;20.15;18.23;;;;;;;15.42;100.00;101496.25;5022022;28;20176;-47
2023/06/16 06:49:41;;;;;;;20.25;18.33;;;;;;;15.38;100.00;101504.59;5015714;28;20293;-47
2023/06/16 06:52:07;;;;;;;22.17;19.88;;;;;;;15.42;100.00;101508.91;5041344;28;20175;-46
2023/06/16 06:54:33;;;;;;;22.45;20.15;;;;;;;15.42;100.00;101525.09;5030611;28;20237;-46
2023/06/16 06:56:58;;;;;;;21.55;19.42;;;;;;;15.54;100.00;101526.31;5038631;28;20188;-46
2023/06/16 06:59:24;;;;;;;20.33;18.23;;;;;;;15.71;100.00;101522.81;5022880;28;20749;-46
2023/06/16 07:01:49;;;;;;;21.05;19.02;;;;;;;15.66;100.00;101539.25;5039296;28;20190;-46
2023/06/16 07:04:15;;;;;;;21.90;19.73;;;;;;;15.67;100.00;101532.88;5039105;28;20785;-47
2023/06/16 07:06:40;;;;;;;21.48;19.42;;;;;;;15.67;100.00;101543.69;5042445;28;20638;-48
2023/06/16 07:09:06;;;;;;;22.20;19.95;;;;;;;15.45;100.00;101544.72;5043387;28;20216;-46
2023/06/16 07:11:32;;;;;;;23.08;20.10;;;;;;;15.61;100.00;101539.47;5036513;28;20187;-46
2023/06/16 07:13:57;;;;;;;20.45;18.48;;;;;;;15.69;100.00;101543.63;5051041;28;20609;-45
2023/06/16 07:16:23;;;;;;;21.05;19.00;;;;;;;15.66;100.00;101529.31;5043981;28;20172;-45
2023/06/16 07:18:48;;;;;;;19.48;17.48;;;;;;;15.70;100.00;101529.16;5051194;28;20313;-47
2023/06/16 07:21:14;;;;;;;22.10;19.85;;;;;;;15.50;100.00;101527.41;5052183;28;20239;-45
2023/06/16 07:23:40;;;;;;;19.83;17.88;;;;;;;15.71;100.00;101512.91;5032407;28;20246;-45
2023/06/16 07:26:05;;;;;;;22.63;19.15;;;;;;;15.85;100.00;101523.94;5051845;28;20159;-45
2023/06/16 07:28:31;;;;;;;23.40;20.98;;;;;;;15.88;100.00;101530.16;5052153;28;20207;-45
2023/06/16 07:30:57;;;;;;;21.80;19.50;;;;;;;16.02;100.00;101525.78;5034513;28;20226;-47
2023/06/16 07:33:22;;;;;;;19.63;17.77;;;;;;;16.34;100.00;101501.66;5052490;28;20206;-45
2023/06/16 07:35:48;;;;;;;21.15;19.10;;;;;;;16.27;100.00;101500.22;5036621;28;20234;-44
2023/06/16 07:38:14;;;;;;;20.50;18.58;;;;;;;16.77;100.00;101494.00;5032727;28;20180;-45
2023/06/16 07:40:40;;;;;;;20.00;18.10;;;;;;;17.12;100.00;101501.16;5032199;28;20200;-44
2023/06/16 07:43:06;;;;;;;18.90;17.00;;;;;;;17.23;100.00;101490.63;5040238;28;20539;-46
2023/06/16 07:45:33;;;;;;;19.90;17.73;;;;;;;17.41;100.00;101491.44;5052063;28;20565;-48
2023/06/16 07:47:59;;;;;;;18.98;17.00;;;;;;;17.15;100.00;101487.47;5052116;28;20167;-45
2023/06/16 07:50:25;;;;;;;21.27;18.38;;;;;;;17.41;100.00;101491.44;5051803;28;20198;-46
2023/06/16 07:52:51;;;;;;;19.02;16.30;;;;;;;17.19;100.00;101489.06;5046621;28;20649;-45
2023/06/16 07:55:17;;;;;;;21.30;16.80;;;;;;;17.32;100.00;101495.53;5031822;28;20172;-44
2023/06/16 07:57:42;;;;;;;19.80;17.73;;;;;;;17.21;100.00;101485.31;5032017;28;20167;-46
2023/06/16 08:00:11;;;;;;;18.45;16.60;;;;;;;17.57;100.00;101486.88;5031856;28;20208;-47
2023/06/16 08:02:44;;;;;;;21.65;17.17;;;;;;;17.39;100.00;101486.09;5042590;28;20217;-49
2023/06/16 08:05:11;;;;;;;18.98;16.92;;;;;;;17.62;100.00;101486.63;5051602;28;20179;-45
2023/06/16 08:07:37;;;;;;;18.50;16.70;;;;;;;18.21;100.00;101473.25;5050941;28;20164;-45
2023/06/16 08:10:04;;;;;;;19.15;16.70;;;;;;;18.05;100.00;101484.16;5045421;28;20211;-46
2023/06/16 08:12:31;;;;;;;18.52;16.83;;;;;;;18.50;100.00;101475.09;5037258;28;20237;-46
2023/06/16 08:14:56;;;;;;;19.20;16.00;;;;;;;18.12;100.00;101459.28;5038434;28;20254;-46
2023/06/16 08:17:22;;;;;;;16.50;14.98;;;;;;;18.71;100.00;101456.59;5051298;28;20626;-49
2023/06/16 08:19:48;;;;;;;17.55;15.85;;;;;;;18.50;100.00;101447.97;5034747;28;20236;-48
2023/06/16 08:22:14;;;;;;;16.25;14.40;;;;;;;18.56;100.00;101448.53;5034373;28;20187;-44
2023/06/16 08:24:40;;;;;;;15.50;13.88;;;;;;;18.50;100.00;101430.81;5047089;28;20253;-48
2023/06/16 08:27:06;;;;;;;14.02;12.73;;;;;;;19.43;100.00;101414.94;5035303;28;20271;-43
2023/06/16 08:29:32;;;;;;;15.13;13.77;;;;;;;19.64;100.00;101409.94;5031673;28;20204;-46
2023/06/16 08:31:57;;;;;;;15.30;13.70;;;;;;;19.41;100.00;101397.88;5044789;28;20245;-46
2023/06/16 08:34:23;;;;;;;13.23;11.80;;;;;;;19.73;100.00;101396.63;5033214;28;20721;-49
2023/06/16 08:36:49;;;;;;;16.73;11.93;;;;;;;19.30;99.26;101385.84;5044973;28;20172;-45
2023/06/16 08:39:15;;;;;;;11.63;10.00;;;;;;;19.57;99.14;101398.59;5049696;28;20207;-46
2023/06/16 08:41:41;;;;;;;13.32;11.95;;;;;;;19.46;98.83;101393.00;5049875;28;20163;-45
2023/06/16 08:44:09;;;;;;;14.35;11.02;;;;;;;19.35;98.06;101399.16;5032565;28;20198;-49
2023/06/16 08:46:36;;;;;;;16.15;12.02;;;;;;;18.97;98.60;101410.66;5041117;28;20175;-48
2023/06/16 08:49:04;;;;;;;13.90;12.35;;;;;;;18.70;100.00;101411.44;5040816;28;20302;-47
2023/06/16 08:51:33;;;;;;;13.52;12.13;;;;;;;18.90;100.00;101403.91;5030843;28;20275;-47
2023/06/16 08:54:09;;;;;;;15.60;11.98;;;;;;;18.80;100.00;101405.44;5049954;28;20163;-46
2023/06/16 08:56:36;;;;;;;13.13;11.77;;;;;;;18.73;100.00;101407.66;5041430;28;20554;-46
2023/06/16 08:59:03;;;;;;;11.95;10.43;;;;;;;18.82;100.00;101406.22;5015712;28;20340;-48
2023/06/16 09:01:30;;;;;;;12.48;11.15;;;;;;;18.77;99.98;101400.19;5030909;28;20187;-45
2023/06/16 09:03:55;;;;;;;12.98;11.77;;;;;;;18.44;99.88;101404.91;5030731;28;20196;-49
2023/06/16 09:06:22;;;;;;;12.50;11.25;;;;;;;18.67;100.00;101410.75;5032139;28;20173;-46
2023/06/16 09:08:48;;;;;;;14.25;12.70;;;;;;;18.60;99.87;101403.97;5048623;28;20262;-51
2023/06/16 09:11:24;;;;;;;12.63;11.38;;;;;;;18.83;99.57;101403.41;5045643;28;20184;-45
2023/06/16 09:13:52;;;;;;;13.75;12.45;;;;;;;19.06;98.58;101411.91;5033795;28;20194;-48
2023/06/16 09:16:20;;;;;;;13.70;10.82;;;;;;;19.52;97.56;101404.31;5042469;28;20188;-46
2023/06/16 09:18:47;;;;;;;12.25;11.15;;;;;;;19.63;96.48;101403.59;5032068;28;20219;-46
2023/06/16 09:21:20;;;;;;;12.63;11.32;;;;;;;19.94;95.65;101410.63;5030383;28;20215;-49
2023/06/16 09:23:48;;;;;;;12.50;11.18;;;;;;;19.97;92.93;101398.66;5035259;28;20182;-51
2023/06/16 09:26:14;;;;;;;12.88;10.63;;;;;;;19.94;92.17;101390.69;5030062;28;20248;-45
2023/06/16 09:28:39;;;;;;;11.20;10.30;;;;;;;20.10;92.02;101404.13;5040796;28;20187;-48
2023/06/16 09:31:07;;;;;;;12.07;10.88;;;;;;;19.94;91.85;101396.13;5043304;28;20179;-46
2023/06/16 09:33:34;;;;;;;10.65;9.55;;;;;;;20.08;91.61;101396.06;5046045;28;20223;-47
2023/06/16 09:36:00;;;;;;;10.60;8.80;;;;;;;19.80;89.32;101379.91;5039974;28;20229;-46
2023/06/16 09:38:31;;;;;;;10.73;9.50;;;;;;;19.98;87.99;101384.06;5048349;28;20286;-46
2023/06/16 09:41:07;;;;;;;10.13;8.43;;;;;;;20.07;87.18;101388.00;5033567;28;20915;-44
2023/06/16 09:43:33;;;;;;;9.75;8.15;;;;;;;20.09;86.46;101389.63;5038980;28;20233;-44
2023/06/16 09:45:59;;;;;;;9.38;8.48;;;;;;;19.98;86.16;101399.50;5034036;28;20176;-48
2023/06/16 09:48:26;;;;;;;12.93;9.07;;;;;;;19.85;85.06;101404.91;5034289;28;20187;-50
2023/06/16 09:50:55;;;;;;;10.52;9.50;;;;;;;19.95;85.14;101406.91;5041957;28;20609;-44
2023/06/16 09:53:22;;;;;;;9.15;8.13;;;;;;;20.04;85.09;101399.97;5037686;28;20240;-46
2023/06/16 09:55:50;;;;;;;10.70;8.82;;;;;;;20.04;84.63;101408.13;5039067;28;20195;-46
2023/06/16 09:58:15;;;;;;;10.07;8.98;;;;;;;20.21;83.50;101397.94;5004045;28;20270;-48
2023/06/16 10:00:41;;;;;;;10.73;8.57;;;;;;;20.50;82.88;101395.88;5034856;28;20314;-45
2023/06/16 10:03:09;;;;;;;9.10;8.30;;;;;;;20.19;82.39;101397.16;5041695;28;20186;-45
2023/06/16 10:05:37;;;;;;;9.35;8.45;;;;;;;20.02;82.59;101398.31;5041493;28;20187;-46
2023/06/16 10:08:05;;;;;;;9.05;8.15;;;;;;;20.16;82.61;101393.69;5035173;28;20178;-46
2023/06/16 10:10:33;;;;;;;8.60;7.70;;;;;;;20.11;81.96;101384.94;5037590;28;20215;-45
2023/06/16 10:13:03;;;;;;;8.43;7.70;;;;;;;20.04;80.78;101383.63;5044552;28;20199;-46
2023/06/16 10:15:34;;;;;;;9.75;8.82;;;;;;;19.99;81.29;101379.50;5045368;28;20243;-44
2023/06/16 10:18:06;;;;;;;7.60;6.78;;;;;;;20.30;81.09;101381.81;5019063;28;20179;-45
2023/06/16 10:20:32;;;;;;;8.75;6.95;;;;;;;20.18;81.04;101369.06;5038722;28;20195;-48
2023/06/16 10:23:02;;;;;;;8.85;8.02;;;;;;;20.32;80.34;101363.53;5041374;28;20189;-50
2023/06/16 10:25:31;;;;;;;8.23;7.40;;;;;;;19.95;79.40;101367.97;5043654;28;20186;-44
2023/06/16 10:28:00;;;;;;;8.05;7.15;;;;;;;20.02;78.85;101372.00;5041001;28;20184;-44
2023/06/16 10:30:28;;;;;;;8.52;7.03;;;;;;;19.83;78.92;101366.06;5037333;28;20637;-48
2023/06/16 10:32:57;;;;;;;9.45;6.13;;;;;;;19.85;79.10;101359.53;5039461;28;20211;-46
2023/06/16 10:35:22;;;;;;;7.93;7.18;;;;;;;19.77;79.35;101361.94;5025695;28;20218;-48
2023/06/16 10:37:52;;;;;;;7.68;6.97;;;;;;;19.82;79.39;101362.50;5041277;28;20223;-46
2023/06/16 10:40:20;;;;;;;9.80;7.07;;;;;;;19.94;80.16;101372.53;5020547;28;20219;-45
2023/06/16 10:42:46;;;;;;;9.13;7.63;;;;;;;19.89;79.37;101358.38;5043616;28;20254;-46
2023/06/16 10:45:26;;;;;;;10.63;7.65;;;;;;;19.81;79.50;101359.88;5040873;28;20192;-46
2023/06/16 10:48:04;;;;;;;9.43;7.60;;;;;;;19.90;79.86;101364.69;5014467;28;20231;-47
2023/06/16 10:50:38;;;;;;;9.13;6.80;;;;;;;20.22;79.74;101358.84;5037930;28;20756;-46
2023/06/16 10:53:15;;;;;;;11.35;7.82;;;;;;;20.17;78.52;101351.88;5039431;28;20179;-44
2023/06/16 10:55:42;;;;;;;8.93;7.93;;;;;;;20.33;78.34;101356.22;5046947;28;20178;-45
2023/06/16 10:58:16;;;;;;;8.85;7.22;;;;;;;20.35;78.34;101349.69;5043947;28;20190;-48
2023/06/16 11:01:02;;;;;;;8.15;7.00;;;;;;;20.31;78.18;101355.47;5037283;28;20202;-47
2023/06/16 11:03:34;;;;;;;8.32;6.72;;;;;;;20.46;76.61;101346.22;5041846;28;20191;-47
2023/06/16 11:06:00;;;;;;;9.18;7.35;;;;;;;20.39;76.11;101336.75;5048220;28;20194;-45
2023/06/16 11:08:27;;;;;;;8.27;7.22;;;;;;;20.45;76.21;101338.16;5039913;28;20261;-48
2023/06/16 11:11:02;;;;;;;10.07;6.97;;;;;;;20.53;76.36;101341.19;5032957;28;20654;-42
2023/06/16 11:13:38;;;;;;;7.43;6.55;;;;;;;20.49;77.08;101337.84;5042947;28;20255;-48